map of LAL home
LAL - Airport
Location
City:  Lakeland, Florida, United States
Name:Lakeland Linder Regional
ICAO:KLAL
IATA:LAL
FAA LID:LAL

Details
Type:Airport (Part 139 Class I)
Use:Public/Civil
Latitude:2759'20"N (27.988917)
Longitude:8201'07"W (-82.018555)
Datum:WGS 1984
Elevation:142 ft (43 m)
Variation:5.84W (WMM2015 magnetic declination)
-0.10 annual change
Runways:3
Longest:8499 × 150 ft (2590 × 45.5 m), paved

Time
Time Zone:UTC-5 (DST-4)
Local Time:

Weather
METAR:KLAL 222350Z 13007KT 10SM FEW060 31/23 A3002
TAF:KLAL 221736Z 2218/2318 14009KT P6SM BKN040 BKN250
FM221900 14008KT P6SM VCTS SCT040CB BKN060 BKN250
FM230200 VRB03KT P6SM SCT030 SCT100 BKN250
FM231400 14008KT P6SM SCT030 BKN250

Related Locations
Nearby:
Farthest:USL: 11488 mi / 18489 km
Useless Loop, WA, AU

Find:

   beyond  
but within

Other Information
Maps:
NOTAMs:
Links:
Sources:

  
flag of United States
flag of Florida
  

Airport Diagram

Airport diagram for LAL

Airport diagram PDF

Sectional Chart

Flight Planning
at skyvector.com

Satellite Image

Google Maps Satellite view

 

Copyright © 2004-2017 Karl L. Swartz. All rights reserved.
The Great Circle Mapper name and logo are trademarks of the Great Circle Mapper.
All other trademarks mentioned herein belong to their respective owners.
Please see credits for attibutions and further copyright information.

  Follow gcmap on Facebook Follow gcmap on Twitter Follow gcmap on Google+ GCmap on LinkedIn

hCard Microformat

Geo Microformat